^^
Grace C. Lehan Memorial Weather Station Historical Data
Daily Summary for April 5, 2022 Units:  Both    English   Metric
Daily Weekly Monthly Yearly
  High: Low: Average:
Temperature: 76.5 °F /  24.7 °C 57.3 °F /  14.1 °C 64.5 °F /  18.1 °C
Dew Point: 66 °F /  18.9 °C 55.9 °F /  13.3 °C 60.8 °F /  16 °C
Humidity: 97% 62% 88%
Wind Speed: 3.7mph /  6km/h - 0.2mph /  0.3km/h
Wind Gust: 15mph /  24.1km/h - -
Wind- - South
Pressure: 30.25 in /  1024.3 hPa 30.14 in /  1020.5 hPa -
Precipitation: 0.00 in /  0 mm    
 
 
Tabular Data for April 5, 2022
Time Temperature Dew Point Pressure Wind Wind Speed Wind Gust Humidity Rainfall Rate (Hourly) solar
00:04 59.5 °F /  15.3 °C 57.2 °F /  14 °C 30.25in /  1024.3hPa Calm   1mph /  1.6km/h 91.9% 0.00in /  0mm 0 W/m2
00:09 59.5 °F /  15.3 °C 57.3 °F /  14.1 °C 30.24in /  1023.9hPa Calm     92.3% 0.00in /  0mm 0 W/m2
00:14 59.5 °F /  15.3 °C 57.5 °F /  14.2 °C 30.24in /  1023.9hPa Calm     93% 0.00in /  0mm 0 W/m2
00:19 59.5 °F /  15.3 °C 57.5 °F /  14.2 °C 30.24in /  1023.9hPa Calm     93% 0.00in /  0mm 0 W/m2
00:24 59.6 °F /  15.3 °C 57.6 °F /  14.2 °C 30.24in /  1023.9hPa Calm     93% 0.00in /  0mm 0 W/m2
00:29 59.6 °F /  15.3 °C 57.6 °F /  14.2 °C 30.24in /  1023.9hPa Calm     93% 0.00in /  0mm 0 W/m2
00:34 59.6 °F /  15.3 °C 57.6 °F /  14.2 °C 30.24in /  1023.9hPa Calm     93% 0.00in /  0mm 0 W/m2
00:39 59.6 °F /  15.3 °C 57.6 °F /  14.2 °C 30.24in /  1023.9hPa Calm     93% 0.00in /  0mm 0 W/m2
00:44 59.6 °F /  15.3 °C 57.6 °F /  14.2 °C 30.23in /  1023.6hPa Calm     93% 0.00in /  0mm 0 W/m2
00:49 59.6 °F /  15.3 °C 57.6 °F /  14.2 °C 30.23in /  1023.6hPa Calm     93% 0.00in /  0mm 0 W/m2
00:54 59.5 °F /  15.3 °C 57.4 °F /  14.1 °C 30.23in /  1023.6hPa Calm     93% 0.00in /  0mm 0 W/m2
00:59 59.4 °F /  15.2 °C 57.4 °F /  14.1 °C 30.23in /  1023.6hPa Calm     93% 0.00in /  0mm 0 W/m2
01:04 59.4 °F /  15.2 °C 57.6 °F /  14.2 °C 30.23in /  1023.6hPa Calm     93.8% 0.00in /  0mm 0 W/m2
01:09 59.4 °F /  15.2 °C 57.7 °F /  14.3 °C 30.24in /  1023.9hPa Calm     94% 0.00in /  0mm 0 W/m2
01:14 59.3 °F /  15.2 °C 57.6 °F /  14.2 °C 30.24in /  1023.9hPa Calm     94% 0.00in /  0mm 0 W/m2
01:19 59.3 °F /  15.2 °C 57.6 °F /  14.2 °C 30.23in /  1023.6hPa Calm     94% 0.00in /  0mm 0 W/m2
01:24 59.4 °F /  15.2 °C 57.6 °F /  14.2 °C 30.23in /  1023.6hPa Calm     94% 0.00in /  0mm 0 W/m2
01:29 59.4 °F /  15.2 °C 57.7 °F /  14.3 °C 30.23in /  1023.6hPa Calm     94% 0.00in /  0mm 0 W/m2
01:34 59.3 °F /  15.2 °C 57.6 °F /  14.2 °C 30.23in /  1023.6hPa Calm     94% 0.00in /  0mm 0 W/m2
01:39 59.3 °F /  15.2 °C 57.6 °F /  14.2 °C 30.23in /  1023.6hPa Calm     94% 0.00in /  0mm 0 W/m2
01:44 59.2 °F /  15.1 °C 57.5 °F /  14.2 °C 30.23in /  1023.6hPa Calm     94% 0.00in /  0mm 0 W/m2
01:49 59.2 °F /  15.1 °C 57.5 °F /  14.2 °C 30.23in /  1023.6hPa Calm     94% 0.00in /  0mm 0 W/m2
01:54 59.1 °F /  15.1 °C 57.4 °F /  14.1 °C 30.23in /  1023.6hPa Calm     94% 0.00in /  0mm 0 W/m2
01:59 59.1 °F /  15.1 °C 57.4 °F /  14.1 °C 30.23in /  1023.6hPa Calm     94% 0.00in /  0mm 0 W/m2
02:04 59.1 °F /  15.1 °C 57.4 °F /  14.1 °C 30.23in /  1023.6hPa Calm     94% 0.00in /  0mm 0 W/m2
02:09 59 °F /  15 °C 57.3 °F /  14.1 °C 30.23in /  1023.6hPa Calm     94% 0.00in /  0mm 0 W/m2
02:14 59 °F /  15 °C 57.3 °F /  14.1 °C 30.23in /  1023.6hPa Calm     94% 0.00in /  0mm 0 W/m2
02:19 59 °F /  15 °C 57.3 °F /  14.1 °C 30.23in /  1023.6hPa Calm     94% 0.00in /  0mm 0 W/m2
02:24 59 °F /  15 °C 57.6 °F /  14.2 °C 30.23in /  1023.6hPa Calm     95% 0.00in /  0mm 0 W/m2
02:29 58.9 °F /  14.9 °C 57.5 °F /  14.2 °C 30.23in /  1023.6hPa Calm     95% 0.00in /  0mm 0 W/m2
02:34 58.9 °F /  14.9 °C 57.5 °F /  14.2 °C 30.23in /  1023.6hPa Calm     95% 0.00in /  0mm 0 W/m2
02:39 58.9 °F /  14.9 °C 57.5 °F /  14.2 °C 30.23in /  1023.6hPa Calm     95% 0.00in /  0mm 0 W/m2
02:44 58.7 °F /  14.8 °C 57.2 °F /  14 °C 30.23in /  1023.6hPa Calm     94.6% 0.00in /  0mm 0 W/m2
02:49 58.5 °F /  14.7 °C 56.8 °F /  13.8 °C 30.23in /  1023.6hPa Calm     94% 0.00in /  0mm 0 W/m2
02:54 58.3 °F /  14.6 °C 56.6 °F /  13.7 °C 30.23in /  1023.6hPa Calm     94% 0.00in /  0mm 0 W/m2
02:59 58.2 °F /  14.6 °C 56.4 °F /  13.6 °C 30.23in /  1023.6hPa Calm     94% 0.00in /  0mm 0 W/m2
03:04 58 °F /  14.4 °C 56.3 °F /  13.5 °C 30.23in /  1023.6hPa Calm     94% 0.00in /  0mm 0 W/m2
03:09 58 °F /  14.4 °C 56.3 °F /  13.5 °C 30.23in /  1023.6hPa Calm     94% 0.00in /  0mm 0 W/m2
03:14 58 °F /  14.4 °C 56.4 °F /  13.6 °C 30.23in /  1023.6hPa Calm     94.6% 0.00in /  0mm 0 W/m2
03:19 58 °F /  14.4 °C 56.6 °F /  13.7 °C 30.23in /  1023.6hPa Calm     95% 0.00in /  0mm 0 W/m2
03:24 58 °F /  14.4 °C 56.6 °F /  13.7 °C 30.23in /  1023.6hPa Calm     95% 0.00in /  0mm 0 W/m2
03:29 58 °F /  14.4 °C 56.6 °F /  13.7 °C 30.23in /  1023.6hPa Calm     95% 0.00in /  0mm 0 W/m2
03:34 57.9 °F /  14.4 °C 56.5 °F /  13.6 °C 30.23in /  1023.6hPa Calm     95% 0.00in /  0mm 0 W/m2
03:39 57.8 °F /  14.3 °C 56.4 °F /  13.6 °C 30.22in /  1023.2hPa Calm     95% 0.00in /  0mm 0 W/m2
03:44 57.7 °F /  14.3 °C 56.3 °F /  13.5 °C 30.22in /  1023.2hPa Calm     95% 0.00in /  0mm 0 W/m2
03:49 57.7 °F /  14.3 °C 56.3 °F /  13.5 °C 30.22in /  1023.2hPa Calm     95% 0.00in /  0mm 0 W/m2
03:54 57.6 °F /  14.2 °C 56.2 °F /  13.4 °C 30.22in /  1023.2hPa Calm     95% 0.00in /  0mm 0 W/m2
03:59 57.6 °F /  14.2 °C 56.2 °F /  13.4 °C 30.22in /  1023.2hPa Calm     95% 0.00in /  0mm 0 W/m2
04:04 57.5 °F /  14.2 °C 56 °F /  13.3 °C 30.22in /  1023.2hPa Calm     95% 0.00in /  0mm 0 W/m2
04:09 57.4 °F /  14.1 °C 56 °F /  13.3 °C 30.22in /  1023.2hPa Calm     95% 0.00in /  0mm 0 W/m2
04:14 57.4 °F /  14.1 °C 55.9 °F /  13.3 °C 30.22in /  1023.2hPa Calm     95% 0.00in /  0mm 0 W/m2
04:19 57.3 °F /  14.1 °C 55.9 °F /  13.3 °C 30.22in /  1023.2hPa Calm     95% 0.00in /  0mm 0 W/m2
04:24 57.3 °F /  14.1 °C 55.9 °F /  13.3 °C 30.22in /  1023.2hPa Calm     95% 0.00in /  0mm 0 W/m2
04:29 57.4 °F /  14.1 °C 56 °F /  13.3 °C 30.22in /  1023.2hPa Calm     95% 0.00in /  0mm 0 W/m2
04:34 57.5 °F /  14.2 °C 56.1 °F /  13.4 °C 30.22in /  1023.2hPa Calm     95% 0.00in /  0mm 0 W/m2
04:39 57.5 °F /  14.2 °C 56.1 °F /  13.4 °C 30.22in /  1023.2hPa Calm     95% 0.00in /  0mm 0 W/m2
04:44 57.5 °F /  14.2 °C 56.1 °F /  13.4 °C 30.21in /  1022.9hPa Calm     95% 0.00in /  0mm 0 W/m2
04:49 57.5 °F /  14.2 °C 56.1 °F /  13.4 °C 30.21in /  1022.9hPa Calm     95% 0.00in /  0mm 0 W/m2
04:54 57.6 °F /  14.2 °C 56.2 °F /  13.4 °C 30.22in /  1023.2hPa Calm     95% 0.00in /  0mm 0 W/m2
04:59 57.8 °F /  14.3 °C 56.5 °F /  13.6 °C 30.21in /  1022.9hPa Calm     95.5% 0.00in /  0mm 0 W/m2
05:04 58 °F /  14.4 °C 56.9 °F /  13.8 °C 30.21in /  1022.9hPa Calm     96% 0.00in /  0mm 0 W/m2
05:09 58.2 °F /  14.6 °C 57.1 °F /  13.9 °C 30.21in /  1022.9hPa Calm     96% 0.00in /  0mm 0 W/m2
05:14 58.3 °F /  14.6 °C 57.2 °F /  14 °C 30.21in /  1022.9hPa Calm     96% 0.00in /  0mm 0 W/m2
05:19 58.2 °F /  14.6 °C 57.1 °F /  13.9 °C 30.21in /  1022.9hPa Calm     95.9% 0.00in /  0mm 0 W/m2
05:24 58.1 °F /  14.5 °C 56.7 °F /  13.7 °C 30.21in /  1022.9hPa Calm     95.1% 0.00in /  0mm 0 W/m2
05:29 58 °F /  14.4 °C 56.7 °F /  13.7 °C 30.21in /  1022.9hPa Calm     95.2% 0.00in /  0mm 0 W/m2
05:34 58 °F /  14.4 °C 56.7 °F /  13.7 °C 30.21in /  1022.9hPa Calm     95.5% 0.00in /  0mm 0 W/m2
05:39 58 °F /  14.4 °C 56.9 °F /  13.8 °C 30.21in /  1022.9hPa Calm     96% 0.00in /  0mm 0 W/m2
05:44 58.1 °F /  14.5 °C 57 °F /  13.9 °C 30.21in /  1022.9hPa Calm     96% 0.00in /  0mm 0 W/m2
05:49 58.3 °F /  14.6 °C 57.1 °F /  13.9 °C 30.21in /  1022.9hPa Calm     96% 0.00in /  0mm 0 W/m2
05:54 58.6 °F /  14.8 °C 57.5 °F /  14.2 °C 30.21in /  1022.9hPa Calm     96% 0.00in /  0mm 0 W/m2
05:59 59 °F /  15 °C 57.8 °F /  14.3 °C 30.21in /  1022.9hPa Calm     96% 0.00in /  0mm 0 W/m2
06:04 59.1 °F /  15.1 °C 58 °F /  14.4 °C 30.21in /  1022.9hPa Calm     96% 0.00in /  0mm 0 W/m2
06:09 59.1 °F /  15.1 °C 58 °F /  14.4 °C 30.21in /  1022.9hPa Calm     96% 0.00in /  0mm 0 W/m2
06:14 59.2 °F /  15.1 °C 58.1 °F /  14.5 °C 30.22in /  1023.2hPa Calm     96% 0.00in /  0mm 0 W/m2
06:19 59.2 °F /  15.1 °C 58.1 °F /  14.5 °C 30.22in /  1023.2hPa Calm     96% 0.00in /  0mm 0 W/m2
06:24 59.3 °F /  15.2 °C 58.2 °F /  14.6 °C 30.22in /  1023.2hPa Calm     96% 0.00in /  0mm 0 W/m2
06:29 59.4 °F /  15.2 °C 58.3 °F /  14.6 °C 30.21in /  1022.9hPa Calm     96% 0.00in /  0mm 0 W/m2
06:34 59.5 °F /  15.3 °C 58.4 °F /  14.7 °C 30.21in /  1022.9hPa Calm     96% 0.00in /  0mm 0 W/m2
06:39 59.6 °F /  15.3 °C 58.5 °F /  14.7 °C 30.21in /  1022.9hPa Calm     96% 0.00in /  0mm 0 W/m2
06:44 59.7 °F /  15.4 °C 58.5 °F /  14.7 °C 30.21in /  1022.9hPa Calm     96% 0.00in /  0mm 0 W/m2
06:49 59.7 °F /  15.4 °C 58.6 °F /  14.8 °C 30.21in /  1022.9hPa Calm     96% 0.00in /  0mm 0 W/m2
06:54 59.7 °F /  15.4 °C 58.6 °F /  14.8 °C 30.21in /  1022.9hPa Calm     96% 0.00in /  0mm 0 W/m2
06:59 59.8 °F /  15.4 °C 58.6 °F /  14.8 °C 30.21in /  1022.9hPa Calm     96% 0.00in /  0mm 0 W/m2
07:04 59.7 °F /  15.4 °C 58.6 °F /  14.8 °C 30.21in /  1022.9hPa Calm     96% 0.00in /  0mm 0 W/m2
07:09 59.6 °F /  15.3 °C 58.5 °F /  14.7 °C 30.21in /  1022.9hPa Calm     96% 0.00in /  0mm 0 W/m2
07:14 59.5 °F /  15.3 °C 58.3 °F /  14.6 °C 30.21in /  1022.9hPa Calm     96% 0.00in /  0mm 0 W/m2
07:19 59.3 °F /  15.2 °C 58.1 °F /  14.5 °C 30.21in /  1022.9hPa Calm     96% 0.00in /  0mm 0 W/m2
07:24 59.1 °F /  15.1 °C 58 °F /  14.4 °C 30.21in /  1022.9hPa Calm     96% 0.00in /  0mm 0 W/m2
07:29 59.1 °F /  15.1 °C 58 °F /  14.4 °C 30.21in /  1022.9hPa Calm     96% 0.00in /  0mm 0 W/m2
07:34 59.1 °F /  15.1 °C 58 °F /  14.4 °C 30.21in /  1022.9hPa Calm     96% 0.00in /  0mm 5 W/m2
07:39 59.1 °F /  15.1 °C 58 °F /  14.4 °C 30.22in /  1023.2hPa Calm     96% 0.00in /  0mm 7 W/m2
07:44 59.1 °F /  15.1 °C 58 °F /  14.4 °C 30.22in /  1023.2hPa Calm     96% 0.00in /  0mm 11 W/m2
07:49 59.1 °F /  15.1 °C 58 °F /  14.4 °C 30.23in /  1023.6hPa Calm     96% 0.00in /  0mm 9 W/m2
07:54 59.2 °F /  15.1 °C 58.1 °F /  14.5 °C 30.23in /  1023.6hPa Calm     96% 0.00in /  0mm 16 W/m2
07:59 59.4 °F /  15.2 °C 58.2 °F /  14.6 °C 30.23in /  1023.6hPa Calm     96% 0.00in /  0mm 21 W/m2
08:00 59.5 °F /  15.3 °C 58.4 °F /  14.7 °C 30.22in /  1023.2hPa Calm     96% 0.00in /  0mm 21 W/m2
08:09 59.8 °F /  15.4 °C 58.6 °F /  14.8 °C 30.22in /  1023.2hPa Calm     96% 0.00in /  0mm 26 W/m2
08:14 60 °F /  15.6 °C 58.8 °F /  14.9 °C 30.22in /  1023.2hPa Calm     96% 0.00in /  0mm 33 W/m2
08:19 60.2 °F /  15.7 °C 59 °F /  15 °C 30.22in /  1023.2hPa Calm     96% 0.00in /  0mm 32 W/m2
08:24 60.4 °F /  15.8 °C 59.2 °F /  15.1 °C 30.22in /  1023.2hPa Calm     96% 0.00in /  0mm 32 W/m2
08:29 60.6 °F /  15.9 °C 59.5 °F /  15.3 °C 30.22in /  1023.2hPa Calm     96.4% 0.00in /  0mm 40 W/m2
08:34 60.7 °F /  15.9 °C 59.7 °F /  15.4 °C 30.22in /  1023.2hPa Calm     96.4% 0.00in /  0mm 56 W/m2
08:39 60.8 °F /  16 °C 59.6 °F /  15.3 °C 30.22in /  1023.2hPa Calm     96% 0.00in /  0mm 58 W/m2
08:44 60.9 °F /  16.1 °C 59.8 °F /  15.4 °C 30.22in /  1023.2hPa Calm     96% 0.00in /  0mm 60 W/m2
08:49 61.1 °F /  16.2 °C 60 °F /  15.6 °C 30.22in /  1023.2hPa Calm     96% 0.00in /  0mm 60 W/m2
08:54 61.3 °F /  16.3 °C 60.4 °F /  15.8 °C 30.22in /  1023.2hPa Calm     97% 0.00in /  0mm 60 W/m2
08:59 61.4 °F /  16.3 °C 60.6 °F /  15.9 °C 30.23in /  1023.6hPa Calm     97% 0.00in /  0mm 58 W/m2
09:04 61.7 °F /  16.5 °C 60.8 °F /  16 °C 30.23in /  1023.6hPa Calm     97% 0.00in /  0mm 63 W/m2
09:09 61.9 °F /  16.6 °C 61 °F /  16.1 °C 30.23in /  1023.6hPa Calm     97% 0.00in /  0mm 70 W/m2
09:14 62.1 °F /  16.7 °C 61.2 °F /  16.2 °C 30.22in /  1023.2hPa Calm     97% 0.00in /  0mm 76 W/m2
09:19 62.3 °F /  16.8 °C 61.5 °F /  16.4 °C 30.22in /  1023.2hPa Calm     97% 0.00in /  0mm 81 W/m2
09:24 62.5 °F /  16.9 °C 61.7 °F /  16.5 °C 30.23in /  1023.6hPa Calm     97% 0.00in /  0mm 86 W/m2
09:29 62.7 °F /  17.1 °C 61.8 °F /  16.6 °C 30.23in /  1023.6hPa Calm     97% 0.00in /  0mm 83 W/m2
09:34 62.9 °F /  17.2 °C 62 °F /  16.7 °C 30.23in /  1023.6hPa Calm     97% 0.00in /  0mm 91 W/m2
09:39 63.1 °F /  17.3 °C 62.2 °F /  16.8 °C 30.23in /  1023.6hPa Calm     97% 0.00in /  0mm 107 W/m2
09:44 63.2 °F /  17.3 °C 62.4 °F /  16.9 °C 30.23in /  1023.6hPa Calm     97% 0.00in /  0mm 113 W/m2
09:49 63.4 °F /  17.4 °C 62.5 °F /  16.9 °C 30.23in /  1023.6hPa Calm     97% 0.00in /  0mm 139 W/m2
09:54 63.6 °F /  17.6 °C 62.7 °F /  17.1 °C 30.23in /  1023.6hPa Calm     97% 0.00in /  0mm 118 W/m2
09:59 63.8 °F /  17.7 °C 62.9 °F /  17.2 °C 30.23in /  1023.6hPa Calm     97% 0.00in /  0mm 90 W/m2
10:04 63.9 °F /  17.7 °C 63 °F /  17.2 °C 30.23in /  1023.6hPa Calm     97% 0.00in /  0mm 111 W/m2
10:09 64 °F /  17.8 °C 63.2 °F /  17.3 °C 30.23in /  1023.6hPa Calm     97% 0.00in /  0mm 141 W/m2
10:14 64.3 °F /  17.9 °C 63.1 °F /  17.3 °C 30.23in /  1023.6hPa Calm     96% 0.00in /  0mm 114 W/m2
10:19 64.3 °F /  17.9 °C 63.2 °F /  17.3 °C 30.23in /  1023.6hPa Calm     96.1% 0.00in /  0mm 125 W/m2
10:24 64.5 °F /  18.1 °C 63.4 °F /  17.4 °C 30.23in /  1023.6hPa Calm     96.2% 0.00in /  0mm 127 W/m2
10:29 64.7 °F /  18.2 °C 63.6 °F /  17.6 °C 30.23in /  1023.6hPa Calm     96% 0.00in /  0mm 121 W/m2
10:34 64.9 °F /  18.3 °C 63.8 °F /  17.7 °C 30.23in /  1023.6hPa Calm   2mph /  3.2km/h 96% 0.00in /  0mm 132 W/m2
10:39 65.1 °F /  18.4 °C 63.9 °F /  17.7 °C 30.23in /  1023.6hPa Calm   2mph /  3.2km/h 96% 0.00in /  0mm 144 W/m2
10:44 65.3 °F /  18.5 °C 63.9 °F /  17.7 °C 30.23in /  1023.6hPa SSW 0.1mph /  0.2km/h 3mph /  4.8km/h 95.5% 0.00in /  0mm 186 W/m2
10:49 65.6 °F /  18.7 °C 64.1 °F /  17.8 °C 30.23in /  1023.6hPa Calm   3mph /  4.8km/h 95% 0.00in /  0mm 160 W/m2
10:54 65.9 °F /  18.8 °C 64.2 °F /  17.9 °C 30.23in /  1023.6hPa SSW 0.2mph /  0.3km/h 3mph /  4.8km/h 94.4% 0.00in /  0mm 199 W/m2
10:59 66.2 °F /  19 °C 64.3 °F /  17.9 °C 30.22in /  1023.2hPa SSW 0.2mph /  0.3km/h 4mph /  6.4km/h 93.5% 0.00in /  0mm 200 W/m2
11:04 66.6 °F /  19.2 °C 64.5 °F /  18.1 °C 30.23in /  1023.6hPa Calm   4mph /  6.4km/h 93% 0.00in /  0mm 216 W/m2
11:09 67 °F /  19.4 °C 64.6 °F /  18.1 °C 30.23in /  1023.6hPa Calm   1mph /  1.6km/h 92.1% 0.00in /  0mm 227 W/m2
11:14 67.4 °F /  19.7 °C 64.8 °F /  18.2 °C 30.23in /  1023.6hPa Calm   1mph /  1.6km/h 91.3% 0.00in /  0mm 251 W/m2
11:19 67.8 °F /  19.9 °C 64.9 °F /  18.3 °C 30.22in /  1023.2hPa SSW 0.1mph /  0.2km/h 3mph /  4.8km/h 90.4% 0.00in /  0mm 311 W/m2
11:24 68.2 °F /  20.1 °C 64.9 °F /  18.3 °C 30.22in /  1023.2hPa SSW 0.2mph /  0.3km/h 3mph /  4.8km/h 89.2% 0.00in /  0mm 211 W/m2
11:29 68.5 °F /  20.3 °C 64.8 °F /  18.2 °C 30.22in /  1023.2hPa Calm   3mph /  4.8km/h 88% 0.00in /  0mm 325 W/m2
11:34 68.9 °F /  20.5 °C 65.2 °F /  18.4 °C 30.22in /  1023.2hPa Calm   3mph /  4.8km/h 87.9% 0.00in /  0mm 380 W/m2
11:39 69.5 °F /  20.8 °C 65.3 °F /  18.5 °C 30.22in /  1023.2hPa Calm     86.7% 0.00in /  0mm 322 W/m2
11:44 69.9 °F /  21.1 °C 65.4 °F /  18.6 °C 30.22in /  1023.2hPa Calm   1mph /  1.6km/h 85.5% 0.00in /  0mm 299 W/m2
11:49 70.6 °F /  21.4 °C 65.6 °F /  18.7 °C 30.22in /  1023.2hPa Calm   1mph /  1.6km/h 84.4% 0.00in /  0mm 330 W/m2
11:54 71.3 °F /  21.8 °C 66 °F /  18.9 °C 30.21in /  1022.9hPa SSW 0.1mph /  0.2km/h 3mph /  4.8km/h 83.4% 0.00in /  0mm 397 W/m2
11:59 72 °F /  22.2 °C 66 °F /  18.9 °C 30.21in /  1022.9hPa SSW 0.1mph /  0.2km/h 3mph /  4.8km/h 81.3% 0.00in /  0mm 132 W/m2
12:00 72.3 °F /  22.4 °C 65.8 °F /  18.8 °C 30.21in /  1022.9hPa Calm   3mph /  4.8km/h 80% 0.00in /  0mm 118 W/m2
12:09 73 °F /  22.8 °C 65.8 °F /  18.8 °C 30.21in /  1022.9hPa SSW 0.3mph /  0.5km/h 3mph /  4.8km/h 78.2% 0.00in /  0mm 450 W/m2
12:14 73.5 °F /  23.1 °C 66 °F /  18.9 °C 30.21in /  1022.9hPa SSW 0.3mph /  0.5km/h 4mph /  6.4km/h 77.4% 0.00in /  0mm 338 W/m2
12:19 73.9 °F /  23.3 °C 65.7 °F /  18.7 °C 30.21in /  1022.9hPa SSW 1.3mph /  2.1km/h 5mph /  8km/h 75.5% 0.00in /  0mm 376 W/m2
12:24 73.9 °F /  23.3 °C 65.5 °F /  18.6 °C 30.20in /  1022.6hPa South 0.3mph /  0.5km/h 5mph /  8km/h 75% 0.00in /  0mm 248 W/m2
12:29 73.8 °F /  23.2 °C 65.4 °F /  18.6 °C 30.20in /  1022.6hPa Calm   5mph /  8km/h 75% 0.00in /  0mm 229 W/m2
12:34 73.8 °F /  23.2 °C 65.3 °F /  18.5 °C 30.20in /  1022.6hPa South 0.5mph /  0.8km/h 5mph /  8km/h 74.7% 0.00in /  0mm 232 W/m2
12:39 73.8 °F /  23.2 °C 65.3 °F /  18.5 °C 30.19in /  1022.2hPa Calm   3mph /  4.8km/h 74.9% 0.00in /  0mm 156 W/m2
12:44 73.8 °F /  23.2 °C 65.3 °F /  18.5 °C 30.19in /  1022.2hPa South 0.7mph /  1.1km/h 5mph /  8km/h 74.8% 0.00in /  0mm 151 W/m2
12:49 73.7 °F /  23.2 °C 65 °F /  18.3 °C 30.19in /  1022.2hPa South 0.2mph /  0.3km/h 5mph /  8km/h 74.2% 0.00in /  0mm 279 W/m2
12:54 74 °F /  23.3 °C 65.2 °F /  18.4 °C 30.19in /  1022.2hPa SSW 1.1mph /  1.8km/h 12mph /  19.3km/h 74% 0.00in /  0mm 279 W/m2
12:56 74.4 °F /  23.6 °C 64.8 °F /  18.2 °C 30.18in /  1021.9hPa South 2.3mph /  3.7km/h 12mph /  19.3km/h 72.1% 0.00in /  0mm 188 W/m2
13:00 74.8 °F /  23.8 °C 64.8 °F /  18.2 °C 30.18in /  1021.9hPa South 1mph /  1.6km/h 12mph /  19.3km/h 71% 0.00in /  0mm 183 W/m2
13:30 76.4 °F /  24.7 °C 62.9 °F /  17.2 °C 30.17in /  1021.6hPa SSW 2mph /  3.2km/h 15mph /  24.1km/h 63% 0.00in /  0mm 272 W/m2
14:00 76.5 °F /  24.7 °C 62.5 °F /  16.9 °C 30.17in /  1021.6hPa South 2mph /  3.2km/h 13mph /  20.9km/h 62% 0.00in /  0mm 243 W/m2
14:30 75.6 °F /  24.2 °C 63.5 °F /  17.5 °C 30.16in /  1021.2hPa SSW 1mph /  1.6km/h 13mph /  20.9km/h 66% 0.00in /  0mm 151 W/m2
15:00 75.1 °F /  23.9 °C 64.3 °F /  17.9 °C 30.16in /  1021.2hPa South 2mph /  3.2km/h 9mph /  14.5km/h 69% 0.00in /  0mm 126 W/m2
15:30 74.7 °F /  23.7 °C 63.5 °F /  17.5 °C 30.15in /  1020.9hPa South 1mph /  1.6km/h 12mph /  19.3km/h 68% 0.00in /  0mm 104 W/m2
16:04 73.9 °F /  23.3 °C 63.1 °F /  17.3 °C 30.15in /  1020.9hPa South 1mph /  1.6km/h 6mph /  9.7km/h 69% 0.00in /  0mm 83 W/m2
16:09 74 °F /  23.3 °C 63.4 °F /  17.4 °C 30.15in /  1020.9hPa South 0.8mph /  1.3km/h 8mph /  12.9km/h 69.6% 0.00in /  0mm 81 W/m2
16:14 74 °F /  23.3 °C 63.5 °F /  17.5 °C 30.15in /  1020.9hPa South 1.7mph /  2.7km/h 10mph /  16.1km/h 69.7% 0.00in /  0mm 88 W/m2
16:19 74 °F /  23.3 °C 63.3 °F /  17.4 °C 30.16in /  1021.2hPa South 2.6mph /  4.2km/h 10mph /  16.1km/h 69.4% 0.00in /  0mm 63 W/m2
16:24 73.9 °F /  23.3 °C 63.1 °F /  17.3 °C 30.16in /  1021.2hPa South 3.7mph /  6km/h 11mph /  17.7km/h 69% 0.00in /  0mm 69 W/m2
16:29 73.9 °F /  23.3 °C 63.2 °F /  17.3 °C 30.16in /  1021.2hPa South 0.7mph /  1.1km/h 11mph /  17.7km/h 69.3% 0.00in /  0mm 60 W/m2
16:34 73.8 °F /  23.2 °C 63.4 °F /  17.4 °C 30.16in /  1021.2hPa South 0.5mph /  0.8km/h 11mph /  17.7km/h 70% 0.00in /  0mm 54 W/m2
16:39 73.8 °F /  23.2 °C 63.4 °F /  17.4 °C 30.15in /  1020.9hPa South 2.3mph /  3.7km/h 9mph /  14.5km/h 70% 0.00in /  0mm 49 W/m2
16:44 73.7 °F /  23.2 °C 63.4 °F /  17.4 °C 30.15in /  1020.9hPa South 2.1mph /  3.4km/h 9mph /  14.5km/h 70.2% 0.00in /  0mm 47 W/m2
16:49 73.7 °F /  23.2 °C 63.5 °F /  17.5 °C 30.15in /  1020.9hPa South 2.3mph /  3.7km/h 10mph /  16.1km/h 70.4% 0.00in /  0mm 28 W/m2
16:54 73.6 °F /  23.1 °C 63.6 °F /  17.6 °C 30.15in /  1020.9hPa South 0.7mph /  1.1km/h 10mph /  16.1km/h 71% 0.00in /  0mm 23 W/m2
16:59 73.4 °F /  23 °C 63.4 °F /  17.4 °C 30.15in /  1020.9hPa South 1.6mph /  2.6km/h 10mph /  16.1km/h 71% 0.00in /  0mm 30 W/m2
17:04 73.3 °F /  22.9 °C 63.3 °F /  17.4 °C 30.15in /  1020.9hPa South 1.9mph /  3.1km/h 10mph /  16.1km/h 71% 0.00in /  0mm 25 W/m2
17:09 73.1 °F /  22.8 °C 63.2 °F /  17.3 °C 30.15in /  1020.9hPa South 1.4mph /  2.3km/h 9mph /  14.5km/h 71% 0.00in /  0mm 14 W/m2
17:14 73 °F /  22.8 °C 63.3 °F /  17.4 °C 30.15in /  1020.9hPa South 1mph /  1.6km/h 9mph /  14.5km/h 71.7% 0.00in /  0mm 12 W/m2
17:19 72.8 °F /  22.7 °C 63.2 °F /  17.3 °C 30.14in /  1020.5hPa SSW 0.6mph /  1km/h 9mph /  14.5km/h 72% 0.00in /  0mm 9 W/m2
17:24 72.6 °F /  22.6 °C 63 °F /  17.2 °C 30.14in /  1020.5hPa SSW 0.6mph /  1km/h 9mph /  14.5km/h 72% 0.00in /  0mm 7 W/m2
17:29 72.3 °F /  22.4 °C 63.2 °F /  17.3 °C 30.14in /  1020.5hPa SSW 0.4mph /  0.6km/h 9mph /  14.5km/h 73% 0.00in /  0mm 5 W/m2
17:34 72.1 °F /  22.3 °C 63 °F /  17.2 °C 30.14in /  1020.5hPa South 0.5mph /  0.8km/h 9mph /  14.5km/h 73% 0.00in /  0mm 0 W/m2
17:39 71.9 °F /  22.2 °C 62.9 °F /  17.2 °C 30.14in /  1020.5hPa South 1.3mph /  2.1km/h 5mph /  8km/h 73.3% 0.00in /  0mm 0 W/m2
17:44 71.7 °F /  22.1 °C 62.9 °F /  17.2 °C 30.14in /  1020.5hPa South 0.8mph /  1.3km/h 7mph /  11.3km/h 74% 0.00in /  0mm 0 W/m2
17:49 71.4 °F /  21.9 °C 62.9 °F /  17.2 °C 30.14in /  1020.5hPa South 1.5mph /  2.4km/h 7mph /  11.3km/h 74.4% 0.00in /  0mm 0 W/m2
17:54 71.2 °F /  21.8 °C 63 °F /  17.2 °C 30.15in /  1020.9hPa South 2.1mph /  3.4km/h 11mph /  17.7km/h 75.4% 0.00in /  0mm 0 W/m2
17:59 71 °F /  21.7 °C 63.1 °F /  17.3 °C 30.15in /  1020.9hPa South 1.6mph /  2.6km/h 11mph /  17.7km/h 76.2% 0.00in /  0mm 0 W/m2
18:04 70.8 °F /  21.6 °C 63.3 °F /  17.4 °C 30.15in /  1020.9hPa South 2.1mph /  3.4km/h 11mph /  17.7km/h 77% 0.00in /  0mm 0 W/m2
18:09 70.6 °F /  21.4 °C 63.1 °F /  17.3 °C 30.14in /  1020.5hPa South 1.4mph /  2.3km/h 10mph /  16.1km/h 77% 0.00in /  0mm 0 W/m2
18:14 70.5 °F /  21.4 °C 62.9 °F /  17.2 °C 30.15in /  1020.9hPa South 0.8mph /  1.3km/h 10mph /  16.1km/h 77% 0.00in /  0mm 0 W/m2
18:19 70.4 °F /  21.3 °C 62.9 °F /  17.2 °C 30.15in /  1020.9hPa SSW 0.6mph /  1km/h 10mph /  16.1km/h 77.2% 0.00in /  0mm 0 W/m2
18:24 70.2 °F /  21.2 °C 63 °F /  17.2 °C 30.15in /  1020.9hPa SSW 0.1mph /  0.2km/h 10mph /  16.1km/h 78% 0.00in /  0mm 0 W/m2
18:29 70.1 °F /  21.2 °C 62.9 °F /  17.2 °C 30.15in /  1020.9hPa Calm   10mph /  16.1km/h 78% 0.00in /  0mm 0 W/m2
18:34 69.9 °F /  21.1 °C 62.7 °F /  17.1 °C 30.16in /  1021.2hPa SSW 0.3mph /  0.5km/h 10mph /  16.1km/h 78% 0.00in /  0mm 0 W/m2
18:39 69.7 °F /  20.9 °C 62.8 °F /  17.1 °C 30.16in /  1021.2hPa Calm   3mph /  4.8km/h 78.8% 0.00in /  0mm 0 W/m2
18:44 69.6 °F /  20.9 °C 62.8 °F /  17.1 °C 30.16in /  1021.2hPa SSW 0.1mph /  0.2km/h 4mph /  6.4km/h 79% 0.00in /  0mm 0 W/m2
18:49 69.5 °F /  20.8 °C 62.7 °F /  17.1 °C 30.16in /  1021.2hPa Calm   4mph /  6.4km/h 79% 0.00in /  0mm 0 W/m2
18:54 69.3 °F /  20.7 °C 62.9 °F /  17.2 °C 30.16in /  1021.2hPa SSW 0.2mph /  0.3km/h 4mph /  6.4km/h 80% 0.00in /  0mm 0 W/m2
18:59 69.2 °F /  20.7 °C 62.8 °F /  17.1 °C 30.16in /  1021.2hPa SSW 0.2mph /  0.3km/h 4mph /  6.4km/h 80% 0.00in /  0mm 0 W/m2
19:04 69.2 °F /  20.7 °C 62.7 °F /  17.1 °C 30.17in /  1021.6hPa Calm   4mph /  6.4km/h 80% 0.00in /  0mm 0 W/m2
19:09 69.1 °F /  20.6 °C 62.7 °F /  17.1 °C 30.17in /  1021.6hPa SSW 0.1mph /  0.2km/h 2mph /  3.2km/h 80.2% 0.00in /  0mm 0 W/m2
19:14 68.9 °F /  20.5 °C 62.9 °F /  17.2 °C 30.17in /  1021.6hPa SSW 0.1mph /  0.2km/h 2mph /  3.2km/h 81% 0.00in /  0mm 0 W/m2
19:19 68.8 °F /  20.4 °C 62.8 °F /  17.1 °C 30.17in /  1021.6hPa Calm   2mph /  3.2km/h 81% 0.00in /  0mm 0 W/m2
19:24 68.7 °F /  20.4 °C 62.6 °F /  17 °C 30.17in /  1021.6hPa Calm   2mph /  3.2km/h 81% 0.00in /  0mm 0 W/m2
19:29 68.6 °F /  20.3 °C 62.7 °F /  17.1 °C 30.17in /  1021.6hPa Calm   2mph /  3.2km/h 81.6% 0.00in /  0mm 0 W/m2
19:34 68.5 °F /  20.3 °C 62.8 °F /  17.1 °C 30.17in /  1021.6hPa SSW 0.1mph /  0.2km/h 2mph /  3.2km/h 82% 0.00in /  0mm 0 W/m2
19:39 68.3 °F /  20.2 °C 62.7 °F /  17.1 °C 30.17in /  1021.6hPa SSW 0.1mph /  0.2km/h 1mph /  1.6km/h 82.3% 0.00in /  0mm 0 W/m2
19:44 68.2 °F /  20.1 °C 62.9 °F /  17.2 °C 30.17in /  1021.6hPa Calm   1mph /  1.6km/h 83% 0.00in /  0mm 0 W/m2
19:49 68.1 °F /  20.1 °C 62.8 °F /  17.1 °C 30.17in /  1021.6hPa Calm   1mph /  1.6km/h 83% 0.00in /  0mm 0 W/m2
19:54 68 °F /  20 °C 62.6 °F /  17 °C 30.17in /  1021.6hPa Calm   1mph /  1.6km/h 83% 0.00in /  0mm 0 W/m2
19:59 67.8 °F /  19.9 °C 62.6 °F /  17 °C 30.18in /  1021.9hPa Calm   1mph /  1.6km/h 83.5% 0.00in /  0mm 0 W/m2
20:04 67.5 °F /  19.7 °C 62.5 °F /  16.9 °C 30.17in /  1021.6hPa SSW 0.2mph /  0.3km/h 1mph /  1.6km/h 84% 0.00in /  0mm 0 W/m2
20:09 67.4 °F /  19.7 °C 62.5 °F /  16.9 °C 30.18in /  1021.9hPa Calm   1mph /  1.6km/h 84.4% 0.00in /  0mm 0 W/m2
20:14 67.2 °F /  19.6 °C 62.6 °F /  17 °C 30.18in /  1021.9hPa Calm   2mph /  3.2km/h 85% 0.00in /  0mm 0 W/m2
20:19 67.1 °F /  19.5 °C 62.5 °F /  16.9 °C 30.18in /  1021.9hPa SSW 0.1mph /  0.2km/h 2mph /  3.2km/h 85.1% 0.00in /  0mm 0 W/m2
20:24 67 °F /  19.4 °C 62.7 °F /  17.1 °C 30.18in /  1021.9hPa Calm   2mph /  3.2km/h 86% 0.00in /  0mm 0 W/m2
20:29 66.9 °F /  19.4 °C 62.6 °F /  17 °C 30.18in /  1021.9hPa Calm   2mph /  3.2km/h 86% 0.00in /  0mm 0 W/m2
20:34 66.9 °F /  19.4 °C 62.6 °F /  17 °C 30.18in /  1021.9hPa Calm   2mph /  3.2km/h 86% 0.00in /  0mm 0 W/m2
20:39 66.8 °F /  19.3 °C 62.5 °F /  16.9 °C 30.18in /  1021.9hPa SSW 0.3mph /  0.5km/h 2mph /  3.2km/h 86% 0.00in /  0mm 0 W/m2
20:44 66.8 °F /  19.3 °C 62.5 °F /  16.9 °C 30.18in /  1021.9hPa Calm   2mph /  3.2km/h 86% 0.00in /  0mm 0 W/m2
20:49 66.7 °F /  19.3 °C 62.7 °F /  17.1 °C 30.18in /  1021.9hPa Calm   2mph /  3.2km/h 86.7% 0.00in /  0mm 0 W/m2
20:54 66.7 °F /  19.3 °C 62.7 °F /  17.1 °C 30.18in /  1021.9hPa Calm   2mph /  3.2km/h 87% 0.00in /  0mm 0 W/m2
20:59 66.6 °F /  19.2 °C 62.6 °F /  17 °C 30.19in /  1022.2hPa Calm   2mph /  3.2km/h 87% 0.00in /  0mm 0 W/m2
21:04 66.5 °F /  19.2 °C 62.6 °F /  17 °C 30.19in /  1022.2hPa Calm   2mph /  3.2km/h 87% 0.00in /  0mm 0 W/m2
21:09 66.4 °F /  19.1 °C 62.4 °F /  16.9 °C 30.19in /  1022.2hPa Calm   1mph /  1.6km/h 87% 0.00in /  0mm 0 W/m2
21:14 66.3 °F /  19.1 °C 62.3 °F /  16.8 °C 30.19in /  1022.2hPa Calm   1mph /  1.6km/h 87% 0.00in /  0mm 0 W/m2
21:19 66.3 °F /  19.1 °C 62.3 °F /  16.8 °C 30.19in /  1022.2hPa Calm   1mph /  1.6km/h 87% 0.00in /  0mm 0 W/m2
21:24 66.2 °F /  19 °C 62.5 °F /  16.9 °C 30.19in /  1022.2hPa Calm   1mph /  1.6km/h 87.9% 0.00in /  0mm 0 W/m2
21:29 66.1 °F /  18.9 °C 62.5 °F /  16.9 °C 30.19in /  1022.2hPa Calm   1mph /  1.6km/h 88% 0.00in /  0mm 0 W/m2
21:34 66.1 °F /  18.9 °C 62.4 °F /  16.9 °C 30.19in /  1022.2hPa Calm   1mph /  1.6km/h 88% 0.00in /  0mm 0 W/m2
21:39 65.9 °F /  18.8 °C 62.3 °F /  16.8 °C 30.19in /  1022.2hPa Calm     88% 0.00in /  0mm 0 W/m2
21:44 65.8 °F /  18.8 °C 62.2 °F /  16.8 °C 30.19in /  1022.2hPa Calm     88% 0.00in /  0mm 0 W/m2
21:49 65.7 °F /  18.7 °C 62.1 °F /  16.7 °C 30.19in /  1022.2hPa Calm     88% 0.00in /  0mm 0 W/m2
21:54 65.7 °F /  18.7 °C 62.3 °F /  16.8 °C 30.19in /  1022.2hPa Calm     88.9% 0.00in /  0mm 0 W/m2
21:59 65.6 °F /  18.7 °C 62.3 °F /  16.8 °C 30.19in /  1022.2hPa Calm     89% 0.00in /  0mm 0 W/m2
22:04 65.6 °F /  18.7 °C 62.3 °F /  16.8 °C 30.19in /  1022.2hPa Calm     89% 0.00in /  0mm 0 W/m2
22:09 65.5 °F /  18.6 °C 62.2 °F /  16.8 °C 30.19in /  1022.2hPa Calm     89% 0.00in /  0mm 0 W/m2
22:14 65.5 °F /  18.6 °C 62.2 °F /  16.8 °C 30.19in /  1022.2hPa Calm     89% 0.00in /  0mm 0 W/m2
22:19 65.5 °F /  18.6 °C 62.2 °F /  16.8 °C 30.19in /  1022.2hPa Calm     89% 0.00in /  0mm 0 W/m2
22:24 65.4 °F /  18.6 °C 62.3 °F /  16.8 °C 30.20in /  1022.6hPa Calm     89.6% 0.00in /  0mm 0 W/m2
22:29 65.4 °F /  18.6 °C 62.4 °F /  16.9 °C 30.20in /  1022.6hPa Calm     90% 0.00in /  0mm 0 W/m2
22:34 65.4 °F /  18.6 °C 62.4 °F /  16.9 °C 30.20in /  1022.6hPa Calm     90% 0.00in /  0mm 0 W/m2
22:39 65.4 °F /  18.6 °C 62.4 °F /  16.9 °C 30.20in /  1022.6hPa Calm     90% 0.00in /  0mm 0 W/m2
22:44 65.4 °F /  18.6 °C 62.4 °F /  16.9 °C 30.20in /  1022.6hPa Calm     90% 0.00in /  0mm 0 W/m2
22:49 65.4 °F /  18.6 °C 62.4 °F /  16.9 °C 30.20in /  1022.6hPa Calm     90% 0.00in /  0mm 0 W/m2
22:54 65.4 °F /  18.6 °C 62.4 °F /  16.9 °C 30.20in /  1022.6hPa Calm     90% 0.00in /  0mm 0 W/m2
22:59 65.5 °F /  18.6 °C 62.5 °F /  16.9 °C 30.20in /  1022.6hPa Calm     90% 0.00in /  0mm 0 W/m2
23:04 65.6 °F /  18.7 °C 62.6 °F /  17 °C 30.20in /  1022.6hPa Calm   1mph /  1.6km/h 90% 0.00in /  0mm 0 W/m2
23:09 65.7 °F /  18.7 °C 62.7 °F /  17.1 °C 30.20in /  1022.6hPa Calm   1mph /  1.6km/h 90% 0.00in /  0mm 0 W/m2
23:14 65.8 °F /  18.8 °C 62.8 °F /  17.1 °C 30.20in /  1022.6hPa SSW 0.1mph /  0.2km/h 3mph /  4.8km/h 89.8% 0.00in /  0mm 0 W/m2
23:19 66 °F /  18.9 °C 62.7 °F /  17.1 °C 30.19in /  1022.2hPa Calm   3mph /  4.8km/h 89% 0.00in /  0mm 0 W/m2
23:24 66.1 °F /  18.9 °C 62.8 °F /  17.1 °C 30.19in /  1022.2hPa SSW 0.1mph /  0.2km/h 3mph /  4.8km/h 89% 0.00in /  0mm 0 W/m2
23:29 66.3 °F /  19.1 °C 62.8 °F /  17.1 °C 30.19in /  1022.2hPa Calm   3mph /  4.8km/h 88.5% 0.00in /  0mm 0 W/m2
23:34 66.3 °F /  19.1 °C 62.6 °F /  17 °C 30.19in /  1022.2hPa Calm   3mph /  4.8km/h 88% 0.00in /  0mm 0 W/m2
23:39 66.3 °F /  19.1 °C 62.7 °F /  17.1 °C 30.19in /  1022.2hPa Calm   1mph /  1.6km/h 88% 0.00in /  0mm 0 W/m2
23:44 66.4 °F /  19.1 °C 62.7 °F /  17.1 °C 30.19in /  1022.2hPa Calm   1mph /  1.6km/h 88% 0.00in /  0mm 0 W/m2
23:49 66.3 °F /  19.1 °C 62.7 °F /  17.1 °C 30.19in /  1022.2hPa Calm   1mph /  1.6km/h 88% 0.00in /  0mm 0 W/m2
23:54 66.3 °F /  19.1 °C 62.6 °F /  17 °C 30.19in /  1022.2hPa Calm   1mph /  1.6km/h 88% 0.00in /  0mm 0 W/m2
23:59 66.2 °F /  19 °C 62.5 °F /  16.9 °C 30.19in /  1022.2hPa Calm   1mph /  1.6km/h 88% 0.00in /  0mm 0 W/m2
Hartford County Weather
Compliments of Weather Underground - 4 mb